New Matamoras, Ohio
Current Conditions -  °F | °C
As of 5:53 AM on Friday 28 Nov 2014 (Local Time) from KPKB Reporting Station
Broken Clouds Broken Clouds  
Wind Chill: 20°   Ceiling: 4700
Heat Index: 28°   Visibility: 10mi
Dew Point: 20°   Wind: 8mph
Humidity: 72%   Direction: 270°W
Pressure: 30.38"   Gusts: NA
Location:  39.52°N, 81.07°W
Report Text: KPKB 281053Z AUTO 27007KT 10SM FEW019 BKN047 M02/M07 A3038 RMK AO2 SLP296 T10221067
Loading
Personal Weather Stations






























Interactive Weather Map New forecast layout! Learn more

10-Day Weather Forecast

Advertisements
Track Severe Weather on mobile